createdAt,value
2022-12-20T00:01:56.335Z,97138.50
2022-12-20T00:04:24.752Z,97129.97
2022-12-20T00:06:54.416Z,97151.00
2022-12-20T00:09:22.701Z,97146.19
2022-12-20T00:11:50.983Z,97107.25
2022-12-20T00:14:19.677Z,97144.63
2022-12-20T00:16:48.043Z,97157.66
2022-12-20T00:19:16.319Z,97089.66
2022-12-20T00:21:44.572Z,97075.13
2022-12-20T00:24:14.212Z,97108.28
2022-12-20T00:26:42.898Z,97132.69
2022-12-20T00:29:11.239Z,97120.94
2022-12-20T00:31:39.943Z,97121.22
2022-12-20T00:34:11.076Z,97140.44
2022-12-20T00:36:41.520Z,97148.97
2022-12-20T00:39:11.308Z,97110.66
2022-12-20T00:41:41.330Z,97067.53
2022-12-20T00:44:09.621Z,97122.16
2022-12-20T00:46:38.209Z,97108.41
2022-12-20T00:49:07.570Z,97096.88
2022-12-20T00:51:35.809Z,97111.59
2022-12-20T00:54:05.432Z,97077.00
2022-12-20T00:56:34.130Z,97026.84
2022-12-20T00:59:03.786Z,97101.22
2022-12-20T01:01:34.827Z,97109.00
2022-12-20T01:04:08.269Z,97152.22
2022-12-20T01:06:44.484Z,97107.88
2022-12-20T01:09:12.963Z,97149.69
2022-12-20T01:11:41.196Z,97125.66
2022-12-20T01:14:15.858Z,97124.56
2022-12-20T01:16:46.788Z,97129.13
2022-12-20T01:19:19.842Z,97108.09
2022-12-20T01:21:48.196Z,96986.78
2022-12-20T01:24:19.510Z,97225.50
2022-12-20T01:26:49.045Z,97108.63
2022-12-20T01:29:18.701Z,97053.38
2022-12-20T01:31:47.289Z,97115.09
2022-12-20T01:34:15.675Z,97085.75
2022-12-20T01:36:43.953Z,97097.13
2022-12-20T01:39:16.375Z,97080.13
2022-12-20T01:41:47.169Z,97107.94
2022-12-20T01:44:56.119Z,97057.56
2022-12-20T01:47:25.948Z,97084.38
2022-12-20T01:49:56.851Z,97120.44
2022-12-20T01:52:32.716Z,97094.75
2022-12-20T01:55:09.058Z,97111.84
2022-12-20T01:57:43.727Z,97064.97
2022-12-20T02:00:16.060Z,97024.94
2022-12-20T02:02:46.590Z,97106.41
2022-12-20T02:05:17.221Z,97125.09
2022-12-20T02:07:51.060Z,97109.16
2022-12-20T02:10:22.742Z,97061.00
2022-12-20T02:13:00.125Z,97123.63
2022-12-20T02:15:44.228Z,97067.56
2022-12-20T02:18:22.504Z,97044.88
2022-12-20T02:21:12.990Z,97088.84
2022-12-20T02:24:28.774Z,97096.16
2022-12-20T02:27:42.452Z,97088.09
2022-12-20T02:30:16.617Z,96925.09
2022-12-20T02:33:01.365Z,97043.50
2022-12-20T02:35:32.813Z,97039.91
2022-12-20T02:38:24.593Z,96980.13
2022-12-20T02:40:57.899Z,97027.41
2022-12-20T02:43:46.506Z,97056.53
2022-12-20T02:46:17.935Z,97045.16
2022-12-20T02:48:48.835Z,97055.16
2022-12-20T02:51:19.921Z,97035.72
2022-12-20T02:53:48.680Z,97032.38
2022-12-20T02:56:24.505Z,97106.50
2022-12-20T02:58:59.741Z,97083.28
2022-12-20T03:01:57.537Z,97020.00
2022-12-20T03:04:30.332Z,97039.78
2022-12-20T03:07:09.912Z,97037.09
2022-12-20T03:09:42.200Z,97018.34
2022-12-20T03:12:16.037Z,97056.06
2022-12-20T03:14:44.656Z,97029.25
2022-12-20T03:17:16.242Z,97044.78
2022-12-20T03:19:44.521Z,97021.28
2022-12-20T03:22:12.787Z,97015.09
2022-12-20T03:24:41.237Z,97033.31
2022-12-20T03:27:13.642Z,96982.16
2022-12-20T03:29:42.057Z,96990.75
2022-12-20T03:32:10.384Z,96997.31
2022-12-20T03:34:41.808Z,97029.44
2022-12-20T03:37:11.586Z,97034.78
2022-12-20T03:39:39.920Z,97027.38
2022-12-20T03:42:09.642Z,97001.88
2022-12-20T03:44:37.994Z,97049.78
2022-12-20T03:47:06.457Z,97037.66
2022-12-20T03:49:37.609Z,97044.75
2022-12-20T03:52:07.576Z,97014.63
2022-12-20T03:54:35.923Z,97026.47
2022-12-20T03:57:18.962Z,97024.81
2022-12-20T03:59:50.206Z,96994.94
2022-12-20T04:02:21.490Z,97016.47
2022-12-20T04:04:50.723Z,96974.97
2022-12-20T04:07:20.733Z,97000.63
2022-12-20T04:09:49.244Z,96930.75
2022-12-20T04:12:18.343Z,96928.44
2022-12-20T04:14:46.963Z,96951.81
2022-12-20T04:17:15.426Z,96994.59
2022-12-20T04:19:44.204Z,96969.69
2022-12-20T04:22:14.018Z,96927.16
2022-12-20T04:24:56.631Z,97011.47
2022-12-20T04:27:32.730Z,96950.75
2022-12-20T04:30:02.904Z,96990.75
2022-12-20T04:32:31.367Z,96984.09
2022-12-20T04:35:01.260Z,96966.16
2022-12-20T04:37:29.781Z,96976.53
2022-12-20T04:40:01.167Z,96972.72
2022-12-20T04:42:54.370Z,96948.22
2022-12-20T04:45:23.058Z,96938.22
2022-12-20T04:47:53.223Z,96947.13
2022-12-20T04:50:27.578Z,96952.28
2022-12-20T04:53:13.622Z,96894.25
2022-12-20T04:55:43.286Z,96956.94
2022-12-20T04:58:11.744Z,96978.19
2022-12-20T05:00:41.928Z,96926.25
2022-12-20T05:03:25.641Z,96955.81
2022-12-20T05:05:54.497Z,96916.81
2022-12-20T05:08:23.686Z,96923.34
2022-12-20T05:10:55.393Z,96962.28
2022-12-20T05:13:23.674Z,96919.09
2022-12-20T05:15:53.425Z,96907.34
2022-12-20T05:18:26.487Z,97025.91
2022-12-20T05:21:25.252Z,96935.19
2022-12-20T05:24:12.494Z,96927.50
2022-12-20T05:26:55.268Z,96902.44
2022-12-20T05:29:23.636Z,96908.06
2022-12-20T05:31:52.581Z,96908.91
2022-12-20T05:34:21.187Z,96894.56
2022-12-20T05:36:54.158Z,96911.16
2022-12-20T05:39:24.542Z,96922.09
2022-12-20T05:41:57.275Z,96864.34
2022-12-20T05:44:29.328Z,96903.09
2022-12-20T05:46:59.385Z,96912.63
2022-12-20T05:49:31.191Z,96892.38
2022-12-20T05:52:03.387Z,96799.38
2022-12-20T05:54:31.666Z,96902.75
2022-12-20T05:57:12.521Z,96947.88
2022-12-20T05:59:42.626Z,96870.16
2022-12-20T06:02:17.921Z,96910.81
2022-12-20T06:04:48.576Z,96893.47
2022-12-20T06:07:24.979Z,96916.22
2022-12-20T06:09:57.682Z,96949.41
2022-12-20T06:12:38.750Z,96976.13
2022-12-20T06:15:09.232Z,96923.91
2022-12-20T06:17:39.912Z,96929.28
2022-12-20T06:20:10.245Z,96885.13
2022-12-20T06:22:38.664Z,96896.72
2022-12-20T06:25:09.265Z,96883.97
2022-12-20T06:27:39.584Z,96834.03
2022-12-20T06:30:19.062Z,96894.84
2022-12-20T06:32:56.936Z,96870.59
2022-12-20T06:35:25.199Z,96866.44
2022-12-20T06:37:56.503Z,96898.09
2022-12-20T06:40:26.175Z,96878.88
2022-12-20T06:42:55.926Z,96892.84
2022-12-20T06:45:26.333Z,96873.88
2022-12-20T06:47:55.425Z,96905.91
2022-12-20T06:50:25.054Z,96895.56
2022-12-20T06:52:53.428Z,96906.94
2022-12-20T06:55:23.355Z,96898.06
2022-12-20T06:57:52.326Z,96844.50
2022-12-20T07:00:24.250Z,96882.91
2022-12-20T07:02:52.599Z,96912.16
2022-12-20T07:05:20.993Z,96909.25
2022-12-20T07:07:49.218Z,97017.44
2022-12-20T07:10:17.762Z,96895.88
2022-12-20T07:12:48.361Z,96879.75
2022-12-20T07:15:18.030Z,96856.56
2022-12-20T07:17:48.013Z,96877.28
2022-12-20T07:20:16.652Z,96867.22
2022-12-20T07:22:44.978Z,96902.63
2022-12-20T07:25:13.314Z,96860.69
2022-12-20T07:27:41.582Z,96891.63
2022-12-20T07:30:10.826Z,96892.97
2022-12-20T07:32:39.031Z,96860.50
2022-12-20T07:35:11.547Z,96888.69
2022-12-20T07:37:40.017Z,96913.41
2022-12-20T07:40:10.122Z,96900.53
2022-12-20T07:42:46.236Z,96915.50
2022-12-20T07:45:16.668Z,96914.91
2022-12-20T07:47:45.335Z,96882.69
2022-12-20T07:50:15.319Z,96868.81
2022-12-20T07:52:47.361Z,96911.75
2022-12-20T07:55:16.236Z,96947.91
2022-12-20T07:57:50.436Z,96819.16
2022-12-20T08:00:19.735Z,96886.63
2022-12-20T08:02:53.940Z,96909.28
2022-12-20T08:05:24.518Z,96883.94
2022-12-20T08:07:59.019Z,96879.94
2022-12-20T08:10:38.795Z,96899.63
2022-12-20T08:13:10.306Z,96872.75
2022-12-20T08:15:39.043Z,96889.56
2022-12-20T08:18:07.765Z,96847.03
2022-12-20T08:20:37.398Z,96928.72
2022-12-20T08:23:06.266Z,96918.63
2022-12-20T08:25:41.156Z,96868.38
2022-12-20T08:28:10.950Z,96928.00
2022-12-20T08:30:40.667Z,96924.56
2022-12-20T08:33:08.929Z,96910.34
2022-12-20T08:35:38.589Z,96905.56
2022-12-20T08:38:07.513Z,96872.66
2022-12-20T08:40:37.227Z,96872.97
2022-12-20T08:43:10.205Z,96926.97
2022-12-20T08:45:38.809Z,96942.56
2022-12-20T08:48:08.556Z,96896.22
2022-12-20T08:50:38.232Z,96926.13
2022-12-20T08:53:06.475Z,97021.28
2022-12-20T08:55:34.735Z,96899.94
2022-12-20T08:58:03.003Z,96896.91
2022-12-20T09:00:31.242Z,96879.56
2022-12-20T09:02:59.717Z,96871.84
2022-12-20T09:05:31.275Z,96881.75
2022-12-20T09:08:00.895Z,96889.44
2022-12-20T09:10:29.392Z,96901.25
2022-12-20T09:12:57.646Z,96889.34
2022-12-20T09:15:27.708Z,96894.31
2022-12-20T09:17:56.669Z,96870.44
2022-12-20T09:20:25.628Z,96880.63
2022-12-20T09:22:54.054Z,96840.63
2022-12-20T09:25:23.703Z,96867.09
2022-12-20T09:27:51.973Z,96837.59
2022-12-20T09:30:20.555Z,96866.28
2022-12-20T09:32:48.734Z,96921.09
2022-12-20T09:35:22.863Z,96853.53
2022-12-20T09:37:51.550Z,96792.84
2022-12-20T09:40:23.865Z,96871.16
2022-12-20T09:42:53.320Z,96835.22
2022-12-20T09:45:28.534Z,96833.28
2022-12-20T09:47:56.989Z,96830.00
2022-12-20T09:50:41.122Z,96829.38
2022-12-20T09:53:24.201Z,96787.41
2022-12-20T09:56:00.204Z,96759.84
2022-12-20T09:58:58.649Z,96830.06
2022-12-20T10:01:37.966Z,96810.44
2022-12-20T10:04:16.914Z,96807.84
2022-12-20T10:06:55.771Z,96844.41
2022-12-20T10:09:45.595Z,96823.53
2022-12-20T10:12:27.702Z,96873.94
2022-12-20T10:15:16.028Z,96821.03
2022-12-20T10:17:59.282Z,96822.50
2022-12-20T10:20:45.904Z,96834.66
2022-12-20T10:23:29.337Z,96787.97
2022-12-20T10:26:01.036Z,96790.22
2022-12-20T10:28:35.326Z,96819.06
2022-12-20T10:31:07.741Z,96739.84
2022-12-20T10:33:36.903Z,96781.72
2022-12-20T10:36:26.247Z,96826.41
2022-12-20T10:38:56.895Z,96799.44
2022-12-20T10:41:27.799Z,96801.78
2022-12-20T10:44:03.043Z,96806.34
2022-12-20T10:46:42.391Z,96780.31
2022-12-20T10:49:29.592Z,96759.25
2022-12-20T10:52:00.687Z,96777.25
2022-12-20T10:54:34.100Z,96785.06
2022-12-20T10:57:06.735Z,96774.66
2022-12-20T10:59:40.766Z,96782.00
2022-12-20T11:02:39.963Z,96746.78
2022-12-20T11:05:25.451Z,96755.53
2022-12-20T11:10:46.826Z,96768.00
2022-12-20T11:13:25.685Z,96729.78
2022-12-20T11:16:01.598Z,96774.38
2022-12-20T11:18:45.918Z,96773.34
2022-12-20T11:21:28.738Z,96754.19
2022-12-20T11:24:08.873Z,96751.59
2022-12-20T11:26:56.661Z,96767.19
2022-12-20T11:29:59.047Z,96722.47
2022-12-20T11:32:48.684Z,96589.56
2022-12-20T11:35:24.095Z,96684.63
2022-12-20T11:38:09.243Z,96732.06
2022-12-20T11:40:45.520Z,96725.56
2022-12-20T11:44:07.962Z,96651.81
2022-12-20T11:46:45.422Z,96801.13
2022-12-20T11:49:48.228Z,96736.19
2022-12-20T11:52:25.697Z,96724.84
2022-12-20T11:55:05.510Z,96712.03
2022-12-20T11:58:02.140Z,96693.69
2022-12-20T12:00:30.774Z,96694.25
2022-12-20T12:03:06.899Z,96685.38
2022-12-20T12:05:44.875Z,96690.25
2022-12-20T12:08:26.474Z,96679.16
2022-12-20T12:10:59.606Z,96666.38
2022-12-20T12:13:31.731Z,96670.50
2022-12-20T12:16:07.871Z,96671.56
2022-12-20T12:18:38.280Z,96670.41
2022-12-20T12:21:18.263Z,96670.88
2022-12-20T12:24:01.195Z,96635.44
2022-12-20T12:26:32.151Z,96649.44
2022-12-20T12:29:02.801Z,96647.69
2022-12-20T12:31:39.953Z,96645.31
2022-12-20T12:34:20.671Z,96634.78
2022-12-20T12:37:32.322Z,96649.44
2022-12-20T12:40:25.078Z,96607.91
2022-12-20T12:43:35.565Z,96658.56
2022-12-20T12:46:14.137Z,96649.13
2022-12-20T12:48:50.154Z,96551.28
2022-12-20T12:51:26.902Z,96605.44
2022-12-20T12:54:13.447Z,96626.16
2022-12-20T12:56:45.923Z,96644.63
2022-12-20T12:59:45.991Z,96653.16
2022-12-20T13:02:51.240Z,96678.00
2022-12-20T13:05:35.443Z,96646.06
2022-12-20T13:08:05.930Z,96643.66
2022-12-20T13:11:03.167Z,96664.75
2022-12-20T13:13:31.448Z,96640.84
2022-12-20T13:17:02.792Z,96593.91
2022-12-20T13:19:35.423Z,96681.41
2022-12-20T13:22:22.906Z,96624.28
2022-12-20T13:24:56.967Z,96639.19
2022-12-20T13:27:31.216Z,96626.44
2022-12-20T13:30:30.550Z,96622.03
2022-12-20T13:33:25.193Z,96649.63
2022-12-20T13:36:15.028Z,96655.41
2022-12-20T13:38:59.277Z,96583.47
2022-12-20T13:41:37.494Z,96586.25
2022-12-20T13:44:41.009Z,96594.47
2022-12-20T13:47:31.060Z,96595.75
2022-12-20T13:50:02.826Z,96618.81
2022-12-20T13:52:33.417Z,96626.63
2022-12-20T13:55:09.011Z,96585.56
2022-12-20T13:57:45.007Z,96590.19
2022-12-20T14:00:20.532Z,96592.88
2022-12-20T14:02:49.010Z,96588.00
2022-12-20T14:05:23.426Z,96581.03
2022-12-20T14:07:58.013Z,96598.53
2022-12-20T14:10:29.237Z,96575.50
2022-12-20T14:12:58.053Z,96624.69
2022-12-20T14:15:31.827Z,96591.13
2022-12-20T14:18:07.871Z,96524.59
2022-12-20T14:20:38.529Z,96592.72
2022-12-20T14:23:12.223Z,96611.00
2022-12-20T14:25:45.013Z,96621.69
2022-12-20T14:28:28.811Z,96585.94
2022-12-20T14:31:01.350Z,96548.00
2022-12-20T14:33:36.776Z,96615.94
2022-12-20T14:36:19.504Z,96600.59
2022-12-20T14:38:50.197Z,96637.50
2022-12-20T14:41:37.309Z,96583.53
2022-12-20T14:44:18.041Z,96597.41
2022-12-20T14:46:52.695Z,96590.09
2022-12-20T14:49:27.302Z,96575.50
2022-12-20T14:52:12.347Z,96554.66
2022-12-20T14:57:45.503Z,96537.59
2022-12-20T15:00:22.430Z,96530.75
2022-12-20T15:03:26.866Z,96542.72
2022-12-20T15:05:57.411Z,96543.59
2022-12-20T15:08:29.507Z,96523.56
2022-12-20T15:11:03.471Z,96548.31
2022-12-20T15:13:34.735Z,96531.28
2022-12-20T15:16:05.631Z,96487.31
2022-12-20T15:18:35.213Z,96581.75
2022-12-20T15:21:07.497Z,96580.53
2022-12-20T15:23:36.168Z,96517.38
2022-12-20T15:26:04.458Z,96457.91
2022-12-20T15:28:33.215Z,96456.22
2022-12-20T15:31:01.514Z,96567.06
2022-12-20T15:33:35.225Z,96559.28
2022-12-20T15:36:03.408Z,96568.97
2022-12-20T15:41:23.635Z,96593.69
2022-12-20T15:43:55.402Z,96485.22
2022-12-20T15:46:24.025Z,96554.44
2022-12-20T15:48:53.692Z,96576.19
2022-12-20T15:51:29.779Z,96531.28
2022-12-20T15:53:58.703Z,96510.81
2022-12-20T15:56:28.651Z,96488.94
2022-12-20T15:58:57.318Z,96510.34
2022-12-20T16:01:31.194Z,96515.81
2022-12-20T16:04:06.832Z,96504.91
2022-12-20T16:06:35.199Z,96468.66
2022-12-20T16:09:03.836Z,96534.69
2022-12-20T16:11:33.469Z,96527.84
2022-12-20T16:14:01.875Z,96563.09
2022-12-20T16:16:33.671Z,96541.44
2022-12-20T16:19:03.760Z,96528.31
2022-12-20T16:21:36.461Z,96553.72
2022-12-20T16:24:05.455Z,96455.88
2022-12-20T16:26:33.668Z,96515.94
2022-12-20T16:29:01.835Z,96501.63
2022-12-20T16:31:34.235Z,96530.34
2022-12-20T16:34:05.612Z,96534.22
2022-12-20T16:36:35.522Z,96539.56
2022-12-20T16:39:03.705Z,96516.75
2022-12-20T16:41:34.877Z,96512.94
2022-12-20T16:44:04.799Z,96517.94
2022-12-20T16:46:34.805Z,96509.91
2022-12-20T16:49:03.145Z,96482.94
2022-12-20T16:51:34.978Z,96525.13
2022-12-20T16:54:21.789Z,96541.22
2022-12-20T16:56:55.297Z,96511.78
2022-12-20T16:59:24.037Z,96542.41
2022-12-20T17:02:00.416Z,96524.69
2022-12-20T17:04:29.032Z,96493.25
2022-12-20T17:06:58.500Z,96562.59
2022-12-20T17:09:26.787Z,96521.03
2022-12-20T17:11:54.976Z,96508.72
2022-12-20T17:14:23.228Z,96520.78
2022-12-20T17:16:51.522Z,96488.75
2022-12-20T17:19:20.160Z,96526.44
2022-12-20T17:24:37.175Z,96519.38
2022-12-20T17:27:10.515Z,96504.69
2022-12-20T17:29:38.678Z,96480.38
2022-12-20T17:32:21.285Z,96498.78
2022-12-20T17:34:49.751Z,96486.75
2022-12-20T17:37:18.677Z,96446.47
2022-12-20T17:39:48.251Z,96496.19
2022-12-20T17:42:17.313Z,96447.09
2022-12-20T17:44:46.086Z,96537.09
2022-12-20T17:47:14.491Z,96520.31
2022-12-20T17:49:42.684Z,96510.59
2022-12-20T17:52:15.303Z,96498.91
2022-12-20T17:54:43.501Z,96516.28
2022-12-20T17:57:16.536Z,96513.22
2022-12-20T17:59:45.541Z,96504.22
2022-12-20T18:02:22.724Z,96527.88
2022-12-20T18:04:51.724Z,96414.50
2022-12-20T18:07:20.734Z,96510.84
2022-12-20T18:09:49.163Z,96478.13
2022-12-20T18:12:19.048Z,96512.97
2022-12-20T18:14:50.696Z,96411.75
2022-12-20T18:17:19.127Z,96450.38
2022-12-20T18:19:47.278Z,96517.22
2022-12-20T18:22:15.815Z,96516.03
2022-12-20T18:24:44.012Z,96483.44
2022-12-20T18:27:12.164Z,96512.28
2022-12-20T18:29:41.638Z,96510.38
2022-12-20T18:32:09.961Z,96502.69
2022-12-20T18:34:38.211Z,96459.81
2022-12-20T18:37:06.558Z,96449.22
2022-12-20T18:39:34.942Z,96524.53
2022-12-20T18:42:03.273Z,96453.91
2022-12-20T18:44:35.625Z,96519.81
2022-12-20T18:47:05.739Z,96470.44
2022-12-20T18:49:37.481Z,96471.88
2022-12-20T18:52:07.246Z,96480.00
2022-12-20T18:54:35.433Z,96418.38
2022-12-20T18:57:05.937Z,96452.38
2022-12-20T18:59:34.493Z,96487.47
2022-12-20T19:02:03.051Z,96457.44
2022-12-20T19:04:32.733Z,96491.94
2022-12-20T19:07:00.903Z,96469.84
2022-12-20T19:09:29.034Z,96440.34
2022-12-20T19:11:58.032Z,96440.19
2022-12-20T19:14:27.305Z,96465.97
2022-12-20T19:16:55.579Z,96446.81
2022-12-20T19:19:23.755Z,96437.84
2022-12-20T19:21:53.392Z,96459.09
2022-12-20T19:24:21.600Z,96464.19
2022-12-20T19:26:49.792Z,96464.06
2022-12-20T19:29:17.977Z,96447.28
2022-12-20T19:31:46.504Z,96483.09
2022-12-20T19:34:15.585Z,96481.44
2022-12-20T19:36:45.832Z,96486.28
2022-12-20T19:39:20.427Z,96479.66
2022-12-20T19:44:37.561Z,96476.59
2022-12-20T19:47:06.129Z,96411.88
2022-12-20T19:49:35.421Z,96451.31
2022-12-20T19:52:03.726Z,96413.03
2022-12-20T19:54:33.440Z,96449.91
2022-12-20T19:57:01.718Z,96475.41
2022-12-20T19:59:31.044Z,96459.00
2022-12-20T20:01:59.365Z,96477.56
2022-12-20T20:04:27.771Z,96455.31
2022-12-20T20:06:56.406Z,96446.59
2022-12-20T20:09:24.813Z,96414.22
2022-12-20T20:11:54.956Z,96463.59
2022-12-20T20:14:23.561Z,96471.88
2022-12-20T20:16:51.832Z,96447.41
2022-12-20T20:19:20.589Z,96466.44
2022-12-20T20:21:49.240Z,96462.28
2022-12-20T20:24:17.625Z,96449.19
2022-12-20T20:26:45.946Z,96428.66
2022-12-20T20:29:15.501Z,96499.72
2022-12-20T20:31:43.841Z,96450.59
2022-12-20T20:34:12.325Z,96405.25
2022-12-20T20:36:40.528Z,96455.09
2022-12-20T20:39:08.880Z,96451.91
2022-12-20T20:41:37.071Z,96436.56
2022-12-20T20:44:05.832Z,96435.97
2022-12-20T20:46:35.431Z,96448.25
2022-12-20T20:49:03.731Z,96401.25
2022-12-20T20:51:31.963Z,96409.97
2022-12-20T20:54:00.188Z,96472.69
2022-12-20T20:56:28.393Z,96491.47
2022-12-20T20:59:02.647Z,96432.88
2022-12-20T21:01:36.209Z,96450.25
2022-12-20T21:04:07.187Z,96479.06
2022-12-20T21:06:41.202Z,96390.72
2022-12-20T21:09:10.121Z,96462.41
2022-12-20T21:11:38.424Z,96476.13
2022-12-20T21:14:06.771Z,96433.63
2022-12-20T21:16:36.629Z,96449.22
2022-12-20T21:19:05.679Z,96464.78
2022-12-20T21:21:34.024Z,96469.63
2022-12-20T21:24:02.294Z,96449.66
2022-12-20T21:26:30.567Z,96448.97
2022-12-20T21:28:59.790Z,96562.81
2022-12-20T21:31:28.425Z,96447.53
2022-12-20T21:33:59.254Z,96486.50
2022-12-20T21:36:27.665Z,96489.94
2022-12-20T21:38:58.097Z,96448.13
2022-12-20T21:41:30.534Z,96510.03
2022-12-20T21:44:00.520Z,96529.78
2022-12-20T21:46:31.894Z,96448.00
2022-12-20T21:51:56.342Z,96459.56
2022-12-20T21:54:24.883Z,96487.94
2022-12-20T21:56:53.255Z,96500.22
2022-12-20T21:59:21.546Z,96513.22
2022-12-20T22:01:50.096Z,96428.16
2022-12-20T22:04:19.950Z,96435.84
2022-12-20T22:06:48.215Z,96399.78
2022-12-20T22:09:17.284Z,96501.38
2022-12-20T22:11:48.533Z,96470.44
2022-12-20T22:14:16.852Z,96377.31
2022-12-20T22:16:45.360Z,96488.38
2022-12-20T22:19:15.506Z,96471.25
2022-12-20T22:21:45.090Z,96460.72
2022-12-20T22:24:13.285Z,96419.00
2022-12-20T22:26:41.904Z,96476.66
2022-12-20T22:29:10.903Z,96508.69
2022-12-20T22:31:39.200Z,96490.41
2022-12-20T22:34:07.415Z,96497.81
2022-12-20T22:36:36.875Z,96536.81
2022-12-20T22:39:06.537Z,96449.03
2022-12-20T22:41:35.493Z,96491.44
2022-12-20T22:44:04.656Z,96484.13
2022-12-20T22:46:33.187Z,96446.53
2022-12-20T22:49:01.770Z,96497.81
2022-12-20T22:51:37.223Z,96564.34
2022-12-20T22:54:08.513Z,96462.13
2022-12-20T22:56:36.668Z,96459.03
2022-12-20T22:59:05.126Z,96465.44
2022-12-20T23:01:33.482Z,96498.53
2022-12-20T23:07:20.460Z,96436.53
2022-12-20T23:09:50.009Z,96487.41
2022-12-20T23:12:36.088Z,96429.59
2022-12-20T23:15:22.032Z,96488.34
2022-12-20T23:17:50.243Z,96476.66
2022-12-20T23:20:32.686Z,96481.97
2022-12-20T23:23:00.882Z,96507.94
2022-12-20T23:25:30.453Z,96448.38
2022-12-20T23:27:58.637Z,96461.72
2022-12-20T23:30:26.860Z,96483.09
2022-12-20T23:32:56.271Z,96543.91
2022-12-20T23:35:26.998Z,96425.38
2022-12-20T23:37:56.954Z,96450.06
2022-12-20T23:40:25.112Z,96459.19
2022-12-20T23:42:55.536Z,96441.31
2022-12-20T23:45:23.773Z,96424.88
2022-12-20T23:47:51.985Z,96426.81
2022-12-20T23:50:20.165Z,96410.41
2022-12-20T23:52:48.384Z,96352.50
2022-12-20T23:55:16.780Z,96488.66
2022-12-20T23:57:45.401Z,96421.75
